createdAt,value
2023-02-15T00:03:08.678Z,1020.292
2023-02-15T00:23:07.373Z,1020.151
2023-02-15T00:43:07.243Z,1019.91
2023-02-15T01:03:08.923Z,1019.962
2023-02-15T01:23:07.851Z,1019.808
2023-02-15T01:43:07.735Z,1019.57
2023-02-15T02:03:08.615Z,1019.598
2023-02-15T02:23:07.853Z,1019.282
2023-02-15T02:43:07.596Z,1019.199
2023-02-15T03:03:08.479Z,1018.999
2023-02-15T03:23:07.467Z,1018.98
2023-02-15T03:43:07.320Z,1018.853
2023-02-15T04:03:08.789Z,1018.718
2023-02-15T04:23:07.680Z,1018.655
2023-02-15T04:43:07.628Z,1018.51
2023-02-15T05:03:08.538Z,1018.238
2023-02-15T05:23:07.599Z,1018.281
2023-02-15T05:43:07.852Z,1018.273
2023-02-15T06:03:08.893Z,1018.159
2023-02-15T06:23:07.721Z,1018.065
2023-02-15T06:43:07.624Z,1018.151
2023-02-15T07:03:08.563Z,1018.275
2023-02-15T07:23:07.562Z,1018.189
2023-02-15T07:43:07.830Z,1018.028
2023-02-15T08:03:09.050Z,1017.987
2023-02-15T08:23:07.949Z,1017.735
2023-02-15T08:43:07.770Z,1017.647
2023-02-15T09:03:08.650Z,1017.517
2023-02-15T09:23:27.563Z,1017.46
2023-02-15T09:43:07.454Z,1017.364
2023-02-15T10:03:08.909Z,1017.302
2023-02-15T10:23:08.038Z,1017.234
2023-02-15T10:43:07.894Z,1017.048
2023-02-15T11:03:08.752Z,1016.96
2023-02-15T11:23:07.650Z,1016.944
2023-02-15T11:43:07.555Z,1016.836
2023-02-15T12:03:08.671Z,1016.592
2023-02-15T12:23:07.560Z,1016.429
2023-02-15T12:43:10.211Z,1016.1
2023-02-15T13:03:08.912Z,1015.878
2023-02-15T13:23:07.753Z,1015.759
2023-02-15T13:43:07.989Z,1015.51
2023-02-15T14:03:08.834Z,1015.337
2023-02-15T14:23:07.687Z,1015.186
2023-02-15T14:43:07.706Z,1015.122
2023-02-15T15:03:08.598Z,1015.031
2023-02-15T15:23:07.470Z,1014.969
2023-02-15T15:43:07.495Z,1014.866
2023-02-15T16:03:12.093Z,1014.799
2023-02-15T16:23:08.131Z,1014.719
2023-02-15T16:43:08.278Z,1014.84
2023-02-15T17:03:08.141Z,1014.83
2023-02-15T17:23:07.945Z,1014.869
2023-02-15T17:43:07.955Z,1014.88
2023-02-15T18:03:12.539Z,1014.875
2023-02-15T18:23:07.357Z,1014.786
2023-02-15T18:43:07.370Z,1014.727
2023-02-15T19:03:08.460Z,1014.867
2023-02-15T19:23:07.371Z,1014.857
2023-02-15T19:43:07.377Z,1015.007
2023-02-15T20:03:08.474Z,1015.041
2023-02-15T20:23:07.416Z,1015.342
2023-02-15T20:43:07.540Z,1015.274
2023-02-15T21:03:08.593Z,1015.116
2023-02-15T21:23:07.513Z,1015.023
2023-02-15T21:43:07.595Z,1015.279
2023-02-15T22:03:08.575Z,1015.308
2023-02-15T22:23:07.342Z,1015.285
2023-02-15T22:43:07.275Z,1015.225
2023-02-15T23:03:08.621Z,1015.287
2023-02-15T23:23:07.328Z,1015.349
2023-02-15T23:43:08.014Z,1015.344
